createdAt,value
2023-02-12T00:04:17.928Z,8.75
2023-02-12T00:09:26.797Z,8.78
2023-02-12T00:14:38.840Z,8.75
2023-02-12T00:19:49.355Z,8.74
2023-02-12T00:24:55.449Z,8.74
2023-02-12T00:30:00.188Z,8.72
2023-02-12T00:35:06.179Z,8.73
2023-02-12T00:40:13.698Z,8.74
2023-02-12T00:45:19.596Z,8.76
2023-02-12T00:50:24.489Z,8.74
2023-02-12T00:55:35.634Z,8.77
2023-02-12T01:00:41.532Z,8.75
2023-02-12T01:05:45.485Z,8.77
2023-02-12T01:10:57.975Z,8.81
2023-02-12T01:16:11.269Z,8.74
2023-02-12T01:21:21.905Z,8.75
2023-02-12T01:26:28.070Z,8.77
2023-02-12T01:31:34.895Z,8.77
2023-02-12T01:36:42.852Z,8.78
2023-02-12T01:41:48.728Z,8.77
2023-02-12T01:46:58.506Z,8.80
2023-02-12T01:52:09.585Z,8.82
2023-02-12T01:57:17.324Z,8.84
2023-02-12T02:02:23.034Z,8.85
2023-02-12T02:07:27.994Z,8.85
2023-02-12T02:12:56.698Z,8.88
2023-02-12T02:18:10.750Z,8.87
2023-02-12T02:23:49.015Z,8.88
2023-02-12T02:29:22.277Z,8.89
2023-02-12T02:34:40.572Z,8.86
2023-02-12T02:39:54.905Z,8.85
2023-02-12T02:45:15.852Z,8.86
2023-02-12T02:50:28.482Z,8.85
2023-02-12T02:55:47.015Z,8.84
2023-02-12T03:01:00.068Z,8.84
2023-02-12T03:06:10.887Z,8.85
2023-02-12T03:11:23.152Z,8.86
2023-02-12T03:16:32.109Z,8.84
2023-02-12T03:21:45.958Z,8.87
2023-02-12T03:26:54.293Z,8.89
2023-02-12T03:32:08.666Z,8.93
2023-02-12T03:37:20.706Z,8.93
2023-02-12T03:42:39.450Z,8.89
2023-02-12T03:47:49.616Z,8.93
2023-02-12T03:52:57.229Z,8.94
2023-02-12T03:58:05.147Z,8.96
2023-02-12T04:03:09.690Z,8.95
2023-02-12T04:08:19.279Z,8.97
2023-02-12T04:13:28.227Z,8.97
2023-02-12T04:18:43.572Z,8.96
2023-02-12T04:24:12.705Z,8.97
2023-02-12T04:29:26.018Z,8.98
2023-02-12T04:34:39.303Z,8.98
2023-02-12T04:39:52.783Z,9.00
2023-02-12T04:45:00.979Z,9.00
2023-02-12T04:50:06.357Z,9.01
2023-02-12T04:55:13.841Z,8.99
2023-02-12T05:00:19.587Z,8.99
2023-02-12T05:05:24.160Z,9.01
2023-02-12T05:10:31.711Z,9.01
2023-02-12T05:15:35.746Z,9.02
2023-02-12T05:20:40.129Z,9.01
2023-02-12T05:25:45.653Z,9.01
2023-02-12T05:30:50.789Z,9.00
2023-02-12T05:35:56.239Z,9.00
2023-02-12T05:41:07.036Z,9.02
2023-02-12T05:46:14.733Z,9.01
2023-02-12T05:51:22.984Z,9.01
2023-02-12T05:56:33.468Z,9.01
2023-02-12T06:01:40.346Z,9.03
2023-02-12T06:06:45.260Z,9.02
2023-02-12T06:11:51.522Z,9.01
2023-02-12T06:16:56.899Z,9.02
2023-02-12T06:22:01.236Z,9.01
2023-02-12T06:27:07.701Z,9.04
2023-02-12T06:32:13.997Z,9.04
2023-02-12T06:37:18.023Z,9.04
2023-02-12T06:42:27.502Z,9.03
2023-02-12T06:47:33.942Z,9.04
2023-02-12T06:52:38.346Z,9.05
2023-02-12T06:57:44.797Z,9.05
2023-02-12T07:02:54.522Z,9.06
2023-02-12T07:08:04.830Z,9.06
2023-02-12T07:13:21.200Z,9.08
2023-02-12T07:18:27.615Z,9.10
2023-02-12T07:23:31.053Z,9.13
2023-02-12T07:28:43.548Z,9.18
2023-02-12T07:33:48.894Z,9.20
2023-02-12T07:38:55.716Z,9.20
2023-02-12T07:44:08.290Z,9.22
2023-02-12T07:49:17.542Z,9.21
2023-02-12T07:54:28.842Z,9.20
2023-02-12T07:59:42.893Z,9.23
2023-02-12T08:04:47.848Z,9.27
2023-02-12T08:09:59.813Z,9.26
2023-02-12T08:15:08.897Z,9.29
2023-02-12T08:20:20.788Z,9.33
2023-02-12T08:25:34.983Z,9.35
2023-02-12T08:30:44.438Z,9.35
2023-02-12T08:35:48.471Z,9.38
2023-02-12T08:40:53.447Z,9.42
2023-02-12T08:46:03.343Z,9.50
2023-02-12T08:51:11.133Z,9.54
2023-02-12T08:56:22.312Z,9.63
2023-02-12T09:01:36.588Z,9.73
2023-02-12T09:06:50.828Z,9.80
2023-02-12T09:12:00.204Z,9.90
2023-02-12T09:17:37.981Z,10.03
2023-02-12T09:22:46.266Z,10.10
2023-02-12T09:27:54.464Z,10.15
2023-02-12T09:33:05.189Z,10.26
2023-02-12T09:38:19.716Z,10.30
2023-02-12T09:43:33.339Z,10.32
2023-02-12T09:48:59.849Z,10.38
2023-02-12T09:54:10.518Z,10.37
2023-02-12T09:59:23.159Z,10.39
2023-02-12T10:05:02.186Z,10.40
2023-02-12T10:10:25.439Z,10.41
2023-02-12T10:15:39.708Z,10.41
2023-02-12T10:21:15.681Z,10.54
2023-02-12T10:26:26.514Z,10.54
2023-02-12T10:31:59.087Z,10.60
2023-02-12T10:37:25.151Z,10.67
2023-02-12T10:42:43.512Z,10.78
2023-02-12T10:48:04.436Z,10.85
2023-02-12T10:53:28.269Z,10.81
2023-02-12T10:58:33.779Z,10.79
2023-02-12T11:03:46.306Z,10.93
2023-02-12T11:08:57.712Z,11.14
2023-02-12T11:14:14.088Z,11.29
2023-02-12T11:19:43.282Z,11.28
2023-02-12T11:25:05.763Z,11.22
2023-02-12T11:30:21.759Z,11.24
2023-02-12T11:35:35.594Z,11.23
2023-02-12T11:40:52.913Z,11.35
2023-02-12T11:46:08.392Z,11.44
2023-02-12T11:51:28.697Z,11.43
2023-02-12T11:56:47.152Z,11.47
2023-02-12T12:02:07.156Z,11.49
2023-02-12T12:07:34.245Z,11.49
2023-02-12T12:12:48.815Z,11.41
2023-02-12T12:18:33.904Z,11.34
2023-02-12T12:23:49.548Z,11.30
2023-02-12T12:29:04.333Z,11.33
2023-02-12T12:34:17.544Z,11.30
2023-02-12T12:39:30.433Z,11.34
2023-02-12T12:45:00.310Z,11.38
2023-02-12T12:50:25.826Z,11.35
2023-02-12T12:56:03.865Z,11.33
2023-02-12T13:01:37.323Z,11.28
2023-02-12T13:06:54.316Z,11.26
2023-02-12T13:12:20.574Z,11.19
2023-02-12T13:17:46.916Z,11.14
2023-02-12T13:22:58.804Z,11.15
2023-02-12T13:28:07.496Z,11.19
2023-02-12T13:33:24.771Z,11.26
2023-02-12T13:38:53.472Z,11.29
2023-02-12T13:44:11.991Z,11.35
2023-02-12T13:49:37.110Z,11.28
2023-02-12T13:55:00.276Z,11.26
2023-02-12T14:00:28.702Z,11.29
2023-02-12T14:05:35.617Z,11.28
2023-02-12T14:11:04.437Z,11.26
2023-02-12T14:16:38.114Z,11.30
2023-02-12T14:21:45.443Z,11.29
2023-02-12T14:27:00.738Z,11.32
2023-02-12T14:32:05.030Z,11.30
2023-02-12T14:37:37.781Z,11.29
2023-02-12T14:42:58.558Z,11.23
2023-02-12T14:48:06.854Z,11.15
2023-02-12T14:53:31.480Z,11.17
2023-02-12T14:58:42.282Z,11.15
2023-02-12T15:03:57.426Z,11.16
2023-02-12T15:09:11.934Z,11.16
2023-02-12T15:14:24.247Z,11.13
2023-02-12T15:19:43.020Z,11.08
2023-02-12T15:24:59.306Z,11.07
2023-02-12T15:30:06.185Z,11.05
2023-02-12T15:35:28.004Z,11.04
2023-02-12T15:40:36.334Z,11.02
2023-02-12T15:45:46.535Z,10.99
2023-02-12T15:50:58.347Z,10.93
2023-02-12T15:56:07.083Z,10.89
2023-02-12T16:01:19.841Z,10.84
2023-02-12T16:06:29.792Z,10.83
2023-02-12T16:11:51.324Z,10.81
2023-02-12T16:17:00.848Z,10.76
2023-02-12T16:22:19.769Z,10.74
2023-02-12T16:27:27.607Z,10.69
2023-02-12T16:32:54.805Z,10.64
2023-02-12T16:38:04.624Z,10.60
2023-02-12T16:43:29.178Z,10.60
2023-02-12T16:48:42.908Z,10.50
2023-02-12T16:53:56.693Z,10.49
2023-02-12T16:59:03.198Z,10.48
2023-02-12T17:04:19.201Z,10.47
2023-02-12T17:09:23.007Z,10.43
2023-02-12T17:14:29.430Z,10.44
2023-02-12T17:19:32.745Z,10.42
2023-02-12T17:24:36.956Z,10.40
2023-02-12T17:29:43.665Z,10.37
2023-02-12T17:34:53.236Z,10.32
2023-02-12T17:40:00.975Z,10.34
2023-02-12T17:45:10.157Z,10.35
2023-02-12T17:50:20.549Z,10.34
2023-02-12T17:55:32.190Z,10.34
2023-02-12T18:00:40.778Z,10.31
2023-02-12T18:05:53.363Z,10.31
2023-02-12T18:10:58.113Z,10.30
2023-02-12T18:16:10.721Z,10.33
2023-02-12T18:21:23.980Z,10.32
2023-02-12T18:26:41.292Z,10.31
2023-02-12T18:31:47.840Z,10.31
2023-02-12T18:36:57.217Z,10.26
2023-02-12T18:42:02.405Z,10.28
2023-02-12T18:47:11.226Z,10.28
2023-02-12T18:52:18.159Z,10.25
2023-02-12T18:57:21.637Z,10.27
2023-02-12T19:02:27.917Z,10.23
2023-02-12T19:07:32.595Z,10.21
2023-02-12T19:12:38.253Z,10.23
2023-02-12T19:17:48.899Z,10.23
2023-02-12T19:22:56.392Z,10.20
2023-02-12T19:28:09.308Z,10.18
2023-02-12T19:33:16.084Z,10.16
2023-02-12T19:43:50.868Z,10.17
2023-02-12T19:49:03.146Z,10.17
2023-02-12T19:54:08.815Z,10.13
2023-02-12T19:59:34.972Z,10.12
2023-02-12T20:05:02.390Z,10.12
2023-02-12T20:10:07.068Z,10.09
2023-02-12T20:15:14.454Z,10.11
2023-02-12T20:20:22.557Z,10.08
2023-02-12T20:25:27.781Z,10.12
2023-02-12T20:30:31.280Z,10.12
2023-02-12T20:35:37.279Z,10.10
2023-02-12T20:40:40.969Z,10.11
2023-02-12T20:45:47.542Z,10.10
2023-02-12T20:51:36.586Z,10.12
2023-02-12T20:56:44.223Z,10.09
2023-02-12T21:01:48.114Z,10.10
2023-02-12T21:06:51.827Z,10.08
2023-02-12T21:11:59.351Z,10.09
2023-02-12T21:17:07.687Z,10.08
2023-02-12T21:22:11.493Z,10.03
2023-02-12T21:27:24.103Z,10.04
2023-02-12T21:32:35.142Z,10.01
2023-02-12T21:37:44.860Z,10.00
2023-02-12T21:42:56.304Z,9.98
2023-02-12T21:48:02.545Z,9.93
2023-02-12T21:53:07.445Z,9.92
2023-02-12T21:58:13.885Z,9.90
2023-02-12T22:03:17.740Z,9.88
2023-02-12T22:08:29.642Z,9.88
2023-02-12T22:13:37.554Z,9.85
2023-02-12T22:18:45.861Z,9.85
2023-02-12T22:23:52.049Z,9.85
2023-02-12T22:29:05.379Z,9.86
2023-02-12T22:34:14.509Z,9.87
2023-02-12T22:39:30.346Z,9.86
2023-02-12T22:44:39.184Z,9.83
2023-02-12T22:49:43.907Z,9.83
2023-02-12T22:54:52.161Z,9.84
2023-02-12T22:59:57.760Z,9.83
2023-02-12T23:05:04.308Z,9.82
2023-02-12T23:10:10.867Z,9.81
2023-02-12T23:15:19.555Z,9.80
2023-02-12T23:20:24.174Z,9.77
2023-02-12T23:25:29.394Z,9.74
2023-02-12T23:30:37.141Z,9.74
2023-02-12T23:35:42.264Z,9.72
2023-02-12T23:40:46.884Z,9.69
2023-02-12T23:45:52.253Z,9.70
2023-02-12T23:50:57.379Z,9.68
2023-02-12T23:56:01.887Z,9.68
